Time;durP1;ratioP1;P1;durP2;ratioP2;P2;SDS_P1;SDS_P2;PMS_P1;PMS_P2;Temp;Humidity;BMP_temperature;BMP_pressure;BME280_temperature;BME280_humidity;BME280_pressure;Samples;Min_cycle;Max_cycle;Signal;HPM_P1;HPM_P2
2022/11/25 00:02:15;;;;;;;4.60;0.80;;;6.80;99.90;;;;;;6188806;23;20448;-83
2022/11/25 00:04:41;;;;;;;2.72;0.68;;;6.90;99.90;;;;;;6215200;23;20016;-84
2022/11/25 00:07:07;;;;;;;5.47;1.20;;;6.80;99.90;;;;;;6189058;23;20012;-83
2022/11/25 00:09:32;;;;;;;4.95;0.63;;;6.80;99.90;;;;;;6188879;23;20402;-83
2022/11/25 00:11:58;;;;;;;7.95;0.93;;;6.80;99.90;;;;;;6215823;23;20017;-84
2022/11/25 00:14:24;;;;;;;5.07;0.90;;;6.80;99.90;;;;;;6215163;23;20013;-83
2022/11/25 00:16:49;;;;;;;2.88;0.82;;;7.60;99.90;;;;;;6188506;23;20058;-83
2022/11/25 00:19:16;;;;;;;3.63;0.82;;;6.80;99.90;;;;;;6215418;23;20009;-83
2022/11/25 00:21:42;;;;;;;9.98;1.45;;;7.20;99.90;;;;;;6188856;23;20012;-85
2022/11/25 00:24:07;;;;;;;5.05;1.27;;;7.60;99.90;;;;;;6217216;23;20095;-85
2022/11/25 00:26:34;;;;;;;7.68;0.90;;;6.20;99.90;;;;;;6217158;23;20304;-85
2022/11/25 00:29:03;;;;;;;3.42;0.80;;;7.10;99.90;;;;;;6217397;23;20038;-83
2022/11/25 00:31:34;;;;;;;7.22;1.15;;;7.40;99.90;;;;;;6190580;23;20094;-83
2022/11/25 00:34:00;;;;;;;7.88;1.75;;;7.40;99.90;;;;;;6217047;23;20088;-83
2022/11/25 00:36:32;;;;;;;5.68;0.95;;;7.00;99.90;;;;;;6217560;23;20017;-83
2022/11/25 00:39:00;;;;;;;6.13;0.90;;;7.10;99.90;;;;;;6190660;23;20051;-83
2022/11/25 00:46:56;;;;;;;8.77;1.48;;;7.30;99.90;;;;;;6217014;23;20099;-84
2022/11/25 00:49:22;;;;;;;4.10;0.90;;;7.00;99.90;;;;;;6217354;23;20052;-82
2022/11/25 00:51:48;;;;;;;7.82;0.98;;;7.00;99.90;;;;;;6190453;23;20043;-83
2022/11/25 00:54:14;;;;;;;6.57;1.20;;;7.00;99.90;;;;;;6217179;23;20012;-83
2022/11/25 00:56:40;;;;;;;2.85;0.90;;;7.60;99.90;;;;;;6217348;23;20016;-82
2022/11/25 00:59:06;;;;;;;4.15;0.88;;;7.70;99.90;;;;;;6216665;23;20021;-84
2022/11/25 01:01:32;;;;;;;6.53;1.10;;;7.10;99.90;;;;;;6217360;23;20481;-83
2022/11/25 01:03:57;;;;;;;6.35;1.30;;;7.50;99.90;;;;;;6217191;23;20012;-84
2022/11/25 01:06:23;;;;;;;5.78;1.10;;;7.40;99.90;;;;;;6217045;23;20027;-84
2022/11/25 01:08:49;;;;;;;4.68;1.13;;;7.30;99.90;;;;;;6216946;23;20020;-83
2022/11/25 01:11:18;;;;;;;5.55;0.90;;;7.70;99.90;;;;;;6216663;23;20063;-84
2022/11/25 01:13:44;;;;;;;6.25;1.23;;;7.20;99.90;;;;;;6217336;23;20012;-82
2022/11/25 01:16:16;;;;;;;6.75;1.17;;;7.20;99.90;;;;;;6216636;23;20020;-84
2022/11/25 01:18:43;;;;;;;8.93;1.23;;;8.00;99.90;;;;;;6217076;23;20009;-83
2022/11/25 01:21:12;;;;;;;7.07;0.98;;;7.20;99.90;;;;;;6190196;23;20397;-83
2022/11/25 01:23:38;;;;;;;3.90;0.90;;;7.20;99.90;;;;;;6216768;23;20017;-83
2022/11/25 01:26:06;;;;;;;4.63;1.05;;;7.90;99.90;;;;;;6216887;23;20023;-82
2022/11/25 01:28:32;;;;;;;7.45;1.23;;;7.20;99.90;;;;;;6216825;23;20013;-84
2022/11/25 01:31:02;;;;;;;5.95;1.10;;;7.80;99.90;;;;;;6216750;23;20451;-82
2022/11/25 01:33:31;;;;;;;3.83;1.02;;;7.30;99.90;;;;;;6216314;23;20019;-83
2022/11/25 01:36:03;;;;;;;3.38;1.27;;;7.20;99.90;;;;;;6216831;23;20013;-82
2022/11/25 01:38:30;;;;;;;9.15;1.13;;;7.20;99.90;;;;;;6216764;23;20013;-82
2022/11/25 01:40:56;;;;;;;4.03;0.85;;;7.30;99.90;;;;;;6216705;23;20027;-83
2022/11/25 01:43:22;;;;;;;5.97;1.10;;;7.20;99.90;;;;;;6216320;23;20091;-83
2022/11/25 01:45:48;;;;;;;2.72;0.80;;;7.80;99.90;;;;;;6189952;23;20028;-83
2022/11/25 01:48:21;;;;;;;4.95;1.10;;;7.20;99.90;;;;;;6216827;23;20017;-82
2022/11/25 01:50:48;;;;;;;5.85;1.35;;;7.50;99.90;;;;;;6216356;23;20016;-82
2022/11/25 01:53:18;;;;;;;4.88;1.02;;;7.20;99.90;;;;;;6216646;23;20024;-82
2022/11/25 01:55:49;;;;;;;3.33;0.90;;;7.20;99.90;;;;;;6216702;23;20016;-82
2022/11/25 01:58:20;;;;;;;2.45;0.90;;;6.50;99.90;;;;;;6216767;23;20024;-82
2022/11/25 02:00:50;;;;;;;3.45;0.90;;;7.80;99.90;;;;;;6215911;23;20016;-82
2022/11/25 02:03:21;;;;;;;3.67;0.85;;;7.70;99.90;;;;;;6189897;23;20084;-82
2022/11/25 02:06:17;;;;;;;5.18;1.10;;;7.10;99.90;;;;;;6216631;23;20012;-82
2022/11/25 02:08:47;;;;;;;7.25;0.90;;;7.10;99.90;;;;;;6216644;23;20040;-82
2022/11/25 02:11:14;;;;;;;4.20;1.05;;;7.50;99.90;;;;;;6216011;23;20459;-82
2022/11/25 02:13:41;;;;;;;10.45;1.50;;;7.10;99.90;;;;;;6216036;23;20017;-83
2022/11/25 02:16:06;;;;;;;6.78;1.23;;;7.60;99.90;;;;;;6216359;23;20574;-82
2022/11/25 02:18:32;;;;;;;3.75;0.95;;;7.20;99.90;;;;;;6189599;23;20044;-82
2022/11/25 02:20:58;;;;;;;3.35;1.20;;;7.20;99.90;;;;;;6216307;23;20094;-83
2022/11/25 02:23:36;;;;;;;7.22;1.10;;;7.90;99.90;;;;;;6189278;23;20017;-82
2022/11/25 02:26:03;;;;;;;2.30;1.13;;;7.20;99.90;;;;;;6216121;23;20055;-82
2022/11/25 02:28:30;;;;;;;5.85;0.70;;;7.20;99.90;;;;;;6189766;23;20067;-83
2022/11/25 02:30:57;;;;;;;3.03;1.02;;;7.30;99.90;;;;;;6216222;23;20257;-83
2022/11/25 02:33:24;;;;;;;6.85;0.98;;;7.20;99.90;;;;;;6216114;23;20063;-83
2022/11/25 02:35:57;;;;;;;7.25;1.27;;;7.30;99.90;;;;;;6215815;23;20455;-83
2022/11/25 02:38:24;;;;;;;3.95;0.90;;;7.20;99.90;;;;;;6215801;23;20021;-83
2022/11/25 02:40:59;;;;;;;5.38;0.98;;;7.20;99.90;;;;;;6216344;23;20019;-83
2022/11/25 02:43:26;;;;;;;3.53;1.38;;;7.60;99.90;;;;;;6215760;23;20017;-83
2022/11/25 02:46:00;;;;;;;3.70;0.90;;;7.20;99.90;;;;;;6215396;23;20108;-84
2022/11/25 02:48:28;;;;;;;5.85;1.20;;;7.50;99.90;;;;;;6189076;23;20016;-83
2022/11/25 02:50:54;;;;;;;2.90;0.80;;;7.20;99.90;;;;;;6216124;23;20390;-83
2022/11/25 02:53:20;;;;;;;3.95;1.00;;;7.80;99.90;;;;;;6216162;23;20021;-83
2022/11/25 02:55:46;;;;;;;5.13;1.38;;;6.70;99.90;;;;;;6215734;23;20448;-84
2022/11/25 02:58:12;;;;;;;6.00;1.08;;;7.30;99.90;;;;;;6189504;23;20016;-84
2022/11/25 03:00:39;;;;;;;4.25;0.70;;;8.00;99.90;;;;;;6215764;23;20029;-83
2022/11/25 03:03:05;;;;;;;4.57;1.02;;;7.30;99.90;;;;;;6215284;23;20444;-83
2022/11/25 03:05:31;;;;;;;4.30;0.90;;;8.20;99.90;;;;;;6215752;23;20459;-84
2022/11/25 03:07:57;;;;;;;4.90;1.00;;;8.20;99.90;;;;;;6215897;23;20079;-82
2022/11/25 03:10:23;;;;;;;4.93;1.00;;;7.80;99.90;;;;;;6215988;23;20062;-82
2022/11/25 03:12:49;;;;;;;4.63;0.80;;;7.50;99.90;;;;;;6189340;23;20021;-83
2022/11/25 03:15:15;;;;;;;5.85;1.33;;;7.60;99.90;;;;;;6215767;23;20013;-83
2022/11/25 03:17:41;;;;;;;4.75;0.93;;;7.30;99.90;;;;;;6215766;23;20025;-84
2022/11/25 03:20:08;;;;;;;7.97;1.25;;;7.30;99.90;;;;;;6215628;23;20071;-83
2022/11/25 03:22:34;;;;;;;4.40;1.35;;;7.30;99.90;;;;;;6189296;23;20340;-82
2022/11/25 03:24:59;;;;;;;4.97;1.15;;;7.30;99.90;;;;;;6215684;23;20013;-83
2022/11/25 03:27:25;;;;;;;3.55;0.90;;;7.30;99.90;;;;;;6189244;23;20012;-84
2022/11/25 03:29:50;;;;;;;4.60;1.10;;;7.30;99.90;;;;;;6215669;23;20048;-83
2022/11/25 03:32:16;;;;;;;6.72;1.45;;;7.90;99.90;;;;;;6215743;23;20017;-83
2022/11/25 03:34:42;;;;;;;6.85;1.25;;;7.80;99.90;;;;;;6215647;23;20075;-83
2022/11/25 03:37:08;;;;;;;5.00;1.35;;;7.30;99.90;;;;;;6215441;23;20579;-83
2022/11/25 03:39:33;;;;;;;8.48;2.30;;;7.70;99.90;;;;;;6215574;23;20017;-84
2022/11/25 03:41:59;;;;;;;3.60;1.00;;;8.10;99.90;;;;;;6189010;23;20016;-83
2022/11/25 03:44:25;;;;;;;5.78;1.50;;;7.50;99.90;;;;;;6215782;23;20036;-83
2022/11/25 03:46:50;;;;;;;7.70;1.50;;;8.10;99.90;;;;;;6189526;23;20488;-84
2022/11/25 03:49:16;;;;;;;5.00;1.25;;;7.40;99.90;;;;;;6215717;23;20021;-83
2022/11/25 03:51:42;;;;;;;8.35;1.73;;;7.50;99.90;;;;;;6215613;23;20017;-84
2022/11/25 03:54:08;;;;;;;6.70;1.50;;;8.40;99.90;;;;;;6215945;23;20390;-86
2022/11/25 03:56:34;;;;;;;5.38;2.30;;;7.60;99.90;;;;;;6188923;23;20017;-86
2022/11/25 03:58:59;;;;;;;5.25;1.35;;;7.60;99.90;;;;;;6217224;23;20016;-83
2022/11/25 04:01:25;;;;;;;4.47;1.67;;;7.70;99.90;;;;;;6217542;23;20143;-84
2022/11/25 04:03:51;;;;;;;5.45;1.63;;;7.60;99.90;;;;;;6217830;23;20305;-83
2022/11/25 04:06:18;;;;;;;5.32;1.15;;;7.60;99.90;;;;;;6217620;23;20109;-83
2022/11/25 04:08:45;;;;;;;2.15;1.17;;;8.10;99.90;;;;;;6217433;23;20016;-83
2022/11/25 04:11:12;;;;;;;3.83;1.50;;;8.40;99.90;;;;;;6217278;23;20040;-82
2022/11/25 04:13:37;;;;;;;5.97;1.92;;;7.80;99.90;;;;;;6217696;23;20016;-84
2022/11/25 04:16:03;;;;;;;4.60;1.23;;;7.90;99.90;;;;;;6217530;23;20387;-85
2022/11/25 04:18:29;;;;;;;6.75;1.50;;;7.60;99.90;;;;;;6217538;23;20027;-83
2022/11/25 04:20:54;;;;;;;5.00;1.25;;;8.40;99.90;;;;;;6217718;23;20075;-82
2022/11/25 04:23:20;;;;;;;8.25;1.77;;;8.00;99.90;;;;;;6217392;23;20470;-83
2022/11/25 04:25:49;;;;;;;7.40;1.88;;;8.20;99.90;;;;;;6217575;23;20017;-83
2022/11/25 04:28:14;;;;;;;8.15;2.10;;;7.60;99.90;;;;;;6190781;23;20024;-82
2022/11/25 04:30:40;;;;;;;11.60;2.30;;;8.40;99.90;;;;;;6216949;23;20325;-85
2022/11/25 04:33:06;;;;;;;6.72;2.22;;;7.70;99.90;;;;;;6217675;23;20309;-83
2022/11/25 04:35:31;;;;;;;8.13;1.70;;;7.70;99.90;;;;;;6190296;23;20016;-83
2022/11/25 04:37:57;;;;;;;9.65;2.33;;;8.30;99.90;;;;;;6217513;23;20058;-85
2022/11/25 04:40:23;;;;;;;6.40;2.10;;;7.60;99.90;;;;;;6190716;23;20020;-83
2022/11/25 04:42:49;;;;;;;5.75;2.60;;;7.70;99.90;;;;;;6216891;23;20021;-83
2022/11/25 04:45:16;;;;;;;6.50;1.98;;;7.70;99.90;;;;;;6191055;23;20500;-84
2022/11/25 04:47:44;;;;;;;6.38;1.65;;;8.40;99.90;;;;;;6190292;23;20455;-83
2022/11/25 04:50:16;;;;;;;10.80;2.35;;;8.20;99.90;;;;;;6216751;23;20059;-84
2022/11/25 04:52:42;;;;;;;8.50;2.35;;;8.30;99.90;;;;;;6217256;23;20016;-83
2022/11/25 04:55:08;;;;;;;8.88;2.30;;;8.50;99.90;;;;;;6190257;23;20020;-83
2022/11/25 04:57:34;;;;;;;8.13;2.25;;;7.70;99.90;;;;;;6217331;23;20013;-82
2022/11/25 04:59:59;;;;;;;7.15;1.95;;;7.60;99.90;;;;;;6216732;23;20392;-83
2022/11/25 05:02:26;;;;;;;6.18;2.20;;;7.80;99.90;;;;;;6190172;23;20013;-83
2022/11/25 05:04:54;;;;;;;11.00;2.45;;;8.30;99.90;;;;;;6217000;23;20070;-84
2022/11/25 05:07:22;;;;;;;4.20;2.03;;;7.70;99.90;;;;;;6216813;23;20047;-82
2022/11/25 05:09:48;;;;;;;5.32;1.92;;;7.70;99.90;;;;;;6216779;23;20067;-83
2022/11/25 05:12:20;;;;;;;4.47;2.00;;;8.00;99.90;;;;;;6216827;23;20021;-83
2022/11/25 05:14:46;;;;;;;9.68;2.47;;;8.50;99.90;;;;;;6217234;23;20020;-83
2022/11/25 05:17:14;;;;;;;2.63;1.48;;;7.70;99.90;;;;;;6216361;23;20020;-82
2022/11/25 05:19:40;;;;;;;8.32;2.08;;;8.20;99.90;;;;;;6217005;23;20070;-85
2022/11/25 05:22:09;;;;;;;5.40;2.60;;;7.80;99.90;;;;;;6216832;23;20013;-82
2022/11/25 05:24:35;;;;;;;8.55;2.72;;;8.50;99.90;;;;;;6216983;23;20009;-83
2022/11/25 05:27:01;;;;;;;3.83;2.35;;;8.50;99.90;;;;;;6190307;23;20070;-85
2022/11/25 05:29:26;;;;;;;5.72;2.17;;;7.70;99.90;;;;;;6216959;23;20340;-83
2022/11/25 05:31:52;;;;;;;4.07;1.83;;;7.70;99.90;;;;;;6216690;23;20017;-84
2022/11/25 05:34:18;;;;;;;6.15;1.50;;;7.90;99.90;;;;;;6216394;23;20439;-83
2022/11/25 05:36:43;;;;;;;7.80;2.00;;;8.00;99.90;;;;;;6216396;23;20008;-85
2022/11/25 05:39:09;;;;;;;4.70;1.40;;;8.30;99.90;;;;;;6216872;23;20367;-84
2022/11/25 05:41:35;;;;;;;4.10;1.38;;;7.60;99.90;;;;;;6217129;23;20069;-84
2022/11/25 05:44:04;;;;;;;6.20;1.98;;;8.30;99.90;;;;;;6189956;23;20055;-85
2022/11/25 05:46:30;;;;;;;6.28;2.15;;;8.40;99.90;;;;;;6190014;23;20021;-83
2022/11/25 05:48:56;;;;;;;5.10;1.63;;;8.40;99.90;;;;;;6216423;23;20009;-82
2022/11/25 05:51:23;;;;;;;4.05;1.92;;;8.10;99.90;;;;;;6189858;23;20017;-82
2022/11/25 05:53:48;;;;;;;3.28;1.95;;;7.60;99.90;;;;;;6189694;23;20017;-85
2022/11/25 05:56:14;;;;;;;5.40;1.73;;;7.80;99.90;;;;;;6216518;23;20511;-83
2022/11/25 05:58:40;;;;;;;5.20;1.70;;;7.60;99.90;;;;;;6216227;23;20087;-83
2022/11/25 06:01:12;;;;;;;2.35;1.40;;;7.80;99.90;;;;;;6189786;23;20027;-83
2022/11/25 06:03:38;;;;;;;4.85;1.90;;;8.40;99.90;;;;;;6216042;23;20012;-83
2022/11/25 06:06:06;;;;;;;6.78;2.30;;;8.50;99.90;;;;;;6216388;23;20017;-83
2022/11/25 06:08:34;;;;;;;6.47;2.53;;;7.60;99.90;;;;;;6216421;23;20016;-84
2022/11/25 06:11:07;;;;;;;3.63;1.77;;;7.90;99.90;;;;;;6216421;23;20043;-84
2022/11/25 06:13:32;;;;;;;5.03;2.00;;;7.70;99.90;;;;;;6216400;23;20067;-83
2022/11/25 06:15:59;;;;;;;5.70;2.40;;;7.70;99.90;;;;;;6189580;23;20033;-82
2022/11/25 06:18:25;;;;;;;7.82;2.78;;;7.70;99.90;;;;;;6216500;23;20016;-84
2022/11/25 06:20:57;;;;;;;5.60;1.85;;;7.70;99.90;;;;;;6215588;23;20021;-83
2022/11/25 06:23:24;;;;;;;5.85;2.30;;;7.60;99.90;;;;;;6165016;23;20027;-83
2022/11/25 06:25:49;;;;;;;4.03;2.03;;;8.40;99.90;;;;;;6216298;23;20024;-83
2022/11/25 06:28:15;;;;;;;7.38;2.20;;;8.40;99.90;;;;;;6216394;23;20343;-83
2022/11/25 06:30:41;;;;;;;8.75;2.55;;;7.70;99.90;;;;;;6215702;23;20017;-82
2022/11/25 06:33:06;;;;;;;8.50;3.10;;;8.00;99.90;;;;;;6216221;23;20092;-82
2022/11/25 06:35:32;;;;;;;11.23;3.10;;;7.70;99.90;;;;;;6215912;23;20023;-82
2022/11/25 06:37:58;;;;;;;6.68;2.78;;;8.40;99.90;;;;;;6216072;23;20024;-83
2022/11/25 06:40:24;;;;;;;6.30;1.92;;;8.10;99.90;;;;;;6216041;23;20021;-85
2022/11/25 06:42:50;;;;;;;7.65;2.92;;;7.60;99.90;;;;;;6215755;23;20067;-86
2022/11/25 06:45:15;;;;;;;6.38;2.97;;;8.20;99.90;;;;;;6216316;23;20052;-84
2022/11/25 06:47:41;;;;;;;5.45;2.55;;;7.70;99.90;;;;;;6215453;23;20009;-84
2022/11/25 06:50:07;;;;;;;3.80;1.83;;;8.20;99.90;;;;;;6216059;23;20016;-84
2022/11/25 06:52:32;;;;;;;5.60;3.10;;;7.70;99.90;;;;;;6215884;23;20466;-84
2022/11/25 06:54:58;;;;;;;9.50;3.53;;;7.80;99.90;;;;;;6216183;23;20036;-84
2022/11/25 06:57:24;;;;;;;7.22;2.78;;;8.10;99.90;;;;;;6216023;23;20016;-84
2022/11/25 06:59:50;;;;;;;7.13;2.95;;;8.20;99.90;;;;;;6188804;23;20440;-83
2022/11/25 07:02:16;;;;;;;6.72;2.35;;;7.80;99.90;;;;;;6216256;23;20447;-84
2022/11/25 07:04:42;;;;;;;7.55;2.65;;;8.10;99.90;;;;;;6216023;23;20009;-83
2022/11/25 07:07:07;;;;;;;5.72;2.50;;;7.80;99.90;;;;;;6189017;23;20017;-87
2022/11/25 07:09:33;;;;;;;11.00;2.70;;;7.70;99.90;;;;;;6215655;23;20031;-82
2022/11/25 07:11:59;;;;;;;4.50;2.38;;;7.80;99.90;;;;;;6189194;23;20095;-83
2022/11/25 07:14:25;;;;;;;7.15;2.30;;;7.80;99.90;;;;;;6188924;23;20052;-85
2022/11/25 07:16:51;;;;;;;5.75;2.40;;;7.80;99.90;;;;;;6188930;23;20021;-84
2022/11/25 07:19:17;;;;;;;7.90;2.83;;;8.70;99.90;;;;;;6189115;23;20013;-84
2022/11/25 07:21:44;;;;;;;5.18;2.70;;;8.60;99.90;;;;;;6215474;23;20062;-83
2022/11/25 07:24:13;;;;;;;4.78;2.00;;;8.80;99.90;;;;;;6215088;23;20452;-84
2022/11/25 07:26:40;;;;;;;6.03;2.20;;;8.20;99.90;;;;;;6215738;23;20023;-85
2022/11/25 07:33:19;;;;;;;4.18;1.63;;;7.80;99.90;;;;;;6215329;23;20118;-85
2022/11/25 07:35:45;;;;;;;5.85;2.20;;;7.80;99.90;;;;;;6185771;23;20021;-84
2022/11/25 07:38:11;;;;;;;3.85;2.15;;;8.30;99.90;;;;;;6159193;23;20331;-83
2022/11/25 07:40:36;;;;;;;9.90;2.85;;;8.40;99.90;;;;;;6185496;23;20028;-84
2022/11/25 07:43:03;;;;;;;7.05;2.30;;;7.90;99.90;;;;;;6185838;23;20020;-84
2022/11/25 07:45:28;;;;;;;8.85;2.83;;;8.40;99.90;;;;;;6185387;23;20040;-84
2022/11/25 07:47:54;;;;;;;9.90;3.17;;;7.90;99.90;;;;;;6185700;23;20096;-84
2022/11/25 07:50:20;;;;;;;10.90;2.70;;;8.00;99.90;;;;;;6185243;23;20052;-84
2022/11/25 07:52:46;;;;;;;4.55;2.13;;;8.70;99.90;;;;;;6159160;23;20012;-83
2022/11/25 07:55:11;;;;;;;6.75;2.60;;;8.00;99.90;;;;;;6185557;23;20017;-85
2022/11/25 07:57:37;;;;;;;11.85;2.45;;;8.40;99.90;;;;;;6186034;23;20029;-86
2022/11/25 08:00:04;;;;;;;6.65;2.78;;;7.70;99.90;;;;;;6185349;23;20044;-82
2022/11/25 08:02:29;;;;;;;4.15;2.03;;;8.10;99.90;;;;;;6185341;23;20132;-85
2022/11/25 08:04:55;;;;;;;7.63;2.80;;;8.90;99.90;;;;;;6185213;23;20040;-84
2022/11/25 08:07:21;;;;;;;5.32;2.10;;;7.30;99.90;;;;;;6185292;23;20013;-84
2022/11/25 08:09:46;;;;;;;5.93;2.60;;;8.20;99.90;;;;;;6185132;23;20024;-84
2022/11/25 08:12:12;;;;;;;9.13;2.95;;;8.20;99.90;;;;;;6185478;23;20024;-83
2022/11/25 08:14:38;;;;;;;6.60;2.28;;;9.00;99.90;;;;;;6158959;23;20020;-83
2022/11/25 08:17:04;;;;;;;4.97;2.20;;;8.50;99.90;;;;;;6159019;23;20039;-85
2022/11/25 08:19:31;;;;;;;5.70;2.10;;;7.00;99.90;;;;;;6185567;23;20017;-84
2022/11/25 08:21:56;;;;;;;6.28;2.03;;;8.30;99.90;;;;;;6185491;23;20344;-83
2022/11/25 08:24:22;;;;;;;7.90;1.73;;;7.60;99.90;;;;;;6185636;23;20020;-82
2022/11/25 08:26:48;;;;;;;9.18;2.13;;;8.40;99.90;;;;;;6185807;23;20059;-83
2022/11/25 08:29:15;;;;;;;4.65;1.60;;;8.80;99.90;;;;;;6185289;23;20021;-83
2022/11/25 08:31:41;;;;;;;5.05;1.73;;;8.40;99.90;;;;;;6185236;23;20028;-83
2022/11/25 08:34:08;;;;;;;7.13;1.50;;;9.20;99.90;;;;;;6185180;23;20021;-83
2022/11/25 08:36:35;;;;;;;8.20;1.23;;;8.90;99.90;;;;;;6185535;23;20013;-83
2022/11/25 08:39:04;;;;;;;3.58;1.00;;;8.30;99.90;;;;;;6185402;23;20103;-83
2022/11/25 08:41:33;;;;;;;3.97;1.20;;;8.50;99.90;;;;;;6185166;23;20013;-83
2022/11/25 08:44:00;;;;;;;7.22;1.60;;;8.10;99.90;;;;;;6159999;23;20381;-83
2022/11/25 08:46:28;;;;;;;5.78;1.60;;;8.30;99.90;;;;;;6187422;23;20043;-83
2022/11/25 08:48:55;;;;;;;4.85;1.73;;;9.10;99.90;;;;;;6187171;23;20017;-83
2022/11/25 08:51:24;;;;;;;5.32;1.27;;;8.30;99.90;;;;;;6187371;23;20021;-84
2022/11/25 08:53:50;;;;;;;2.95;1.30;;;8.40;99.90;;;;;;6186872;23;20063;-84
2022/11/25 08:56:17;;;;;;;9.90;1.52;;;8.30;99.90;;;;;;6160679;23;20048;-83
2022/11/25 08:58:43;;;;;;;3.58;1.60;;;8.30;99.90;;;;;;6186836;23;20088;-83
2022/11/25 09:01:11;;;;;;;4.80;1.55;;;9.10;99.90;;;;;;6160789;23;20049;-84
2022/11/25 09:03:39;;;;;;;4.13;1.38;;;8.30;99.90;;;;;;6186949;23;20048;-82
2022/11/25 09:06:06;;;;;;;4.15;1.13;;;8.60;99.90;;;;;;6187246;23;20353;-83
2022/11/25 09:08:32;;;;;;;6.22;1.75;;;8.40;99.90;;;;;;6186696;23;20017;-84
2022/11/25 09:10:59;;;;;;;6.03;1.90;;;9.20;99.90;;;;;;6187124;23;20079;-84
2022/11/25 09:13:24;;;;;;;6.53;1.40;;;8.60;99.90;;;;;;6187164;23;20013;-84
2022/11/25 09:15:50;;;;;;;5.53;1.30;;;8.50;99.90;;;;;;6186951;23;20104;-83
2022/11/25 09:18:18;;;;;;;5.10;1.27;;;8.70;99.90;;;;;;6186988;23;20131;-85
2022/11/25 09:20:45;;;;;;;8.00;1.13;;;8.50;99.90;;;;;;6187081;23;20331;-83
2022/11/25 09:23:11;;;;;;;5.03;1.55;;;9.20;99.90;;;;;;6160326;23;20348;-83
2022/11/25 09:25:36;;;;;;;4.05;1.17;;;9.30;99.90;;;;;;6186929;23;20013;-83
2022/11/25 09:28:03;;;;;;;4.57;1.52;;;8.50;99.90;;;;;;6160447;23;20388;-84
2022/11/25 09:30:29;;;;;;;4.18;1.60;;;8.50;99.90;;;;;;6186309;23;20020;-84
2022/11/25 09:32:55;;;;;;;4.63;1.85;;;8.60;99.90;;;;;;6160255;23;20044;-83
2022/11/25 09:35:22;;;;;;;3.38;1.45;;;8.60;99.90;;;;;;6186433;23;20017;-83
2022/11/25 09:37:48;;;;;;;4.65;1.15;;;9.10;99.90;;;;;;6186876;23;20400;-83
2022/11/25 09:40:33;;;;;;;3.95;1.58;;;8.90;99.90;;;;;;6186838;23;20017;-83
2022/11/25 09:47:01;;;;;;;7.38;1.83;;;8.70;99.90;;;;;;6186627;23;20028;-83
2022/11/25 09:49:38;;;;;;;5.10;1.52;;;8.80;99.90;;;;;;6186602;23;20013;-84
2022/11/25 09:52:27;;;;;;;6.85;1.63;;;8.80;99.90;;;;;;6186724;23;20017;-83
2022/11/25 09:55:15;;;;;;;5.20;1.33;;;8.80;99.90;;;;;;6186151;23;20013;-84
2022/11/25 09:58:00;;;;;;;3.08;1.08;;;9.30;99.90;;;;;;6186403;23;20071;-84
2022/11/25 10:00:39;;;;;;;9.18;1.70;;;8.90;99.90;;;;;;6185899;23;20090;-83
2022/11/25 10:03:17;;;;;;;4.55;1.40;;;8.90;99.90;;;;;;6186507;23;20017;-84
2022/11/25 10:05:50;;;;;;;4.13;1.58;;;8.90;99.90;;;;;;6185976;23;20024;-84
2022/11/25 10:08:27;;;;;;;5.53;1.65;;;9.00;99.90;;;;;;6186505;23;20017;-84
2022/11/25 10:11:11;;;;;;;6.53;1.60;;;9.00;99.90;;;;;;6186258;23;20017;-83
2022/11/25 10:13:56;;;;;;;7.85;2.92;;;9.20;99.90;;;;;;6186982;23;20332;-84
2022/11/25 10:16:37;;;;;;;5.30;1.70;;;9.10;99.90;;;;;;6159798;23;20059;-83
2022/11/25 10:19:21;;;;;;;4.60;1.45;;;9.90;99.90;;;;;;6186686;23;20025;-83
2022/11/25 10:21:47;;;;;;;4.68;1.27;;;9.70;99.90;;;;;;6160234;23;20013;-84
2022/11/25 10:24:16;;;;;;;6.47;1.65;;;9.60;99.90;;;;;;6186312;23;20017;-83
2022/11/25 10:26:45;;;;;;;5.45;1.30;;;9.30;99.90;;;;;;6186608;23;20112;-83
2022/11/25 10:29:14;;;;;;;6.70;1.48;;;9.90;99.90;;;;;;6186449;23;20327;-84
2022/11/25 10:31:42;;;;;;;6.05;1.58;;;9.60;99.90;;;;;;6159879;23;20025;-83
2022/11/25 10:34:35;;;;;;;2.63;1.13;;;9.30;99.90;;;;;;6159622;23;20021;-83
2022/11/25 10:37:08;;;;;;;5.40;1.35;;;9.40;99.90;;;;;;6186067;23;20096;-87
2022/11/25 10:39:34;;;;;;;7.35;1.98;;;9.50;99.90;;;;;;6159941;23;20096;-86
2022/11/25 10:42:20;;;;;;;6.35;1.55;;;10.00;99.90;;;;;;6185977;23;20017;-87
2022/11/25 10:44:46;;;;;;;5.22;1.33;;;9.50;99.90;;;;;;6186295;23;20075;-87
2022/11/25 10:47:48;;;;;;;6.45;1.33;;;10.30;99.90;;;;;;6187239;23;20013;-87
2022/11/25 10:50:33;;;;;;;2.67;1.00;;;9.70;99.90;;;;;;6186484;23;20344;-86
2022/11/25 10:53:07;;;;;;;2.55;1.00;;;9.70;99.90;;;;;;6185428;23;20025;-85
2022/11/25 10:55:33;;;;;;;4.93;1.35;;;9.70;99.90;;;;;;6159691;23;20412;-88
2022/11/25 10:58:38;;;;;;;7.72;1.52;;;9.80;99.90;;;;;;6186018;23;20067;-86
2022/11/25 11:01:22;;;;;;;5.18;1.20;;;9.80;99.90;;;;;;6184697;23;20097;-85
2022/11/25 11:04:04;;;;;;;4.68;1.25;;;9.90;99.90;;;;;;6185822;23;20321;-87
2022/11/25 11:06:36;;;;;;;3.88;1.27;;;10.00;99.90;;;;;;6159421;23;20095;-86
2022/11/25 11:09:02;;;;;;;3.15;1.10;;;10.10;99.90;;;;;;6159330;23;20028;-85
2022/11/25 11:11:29;;;;;;;2.35;0.90;;;10.00;99.90;;;;;;6159177;23;20089;-85
2022/11/25 11:14:12;;;;;;;8.57;1.05;;;10.10;99.90;;;;;;6185890;23;20013;-85
2022/11/25 11:16:41;;;;;;;3.95;1.08;;;10.10;99.90;;;;;;6185587;23;20020;-86
2022/11/25 11:19:20;;;;;;;7.88;1.50;;;10.70;99.90;;;;;;6159299;23;20016;-85
2022/11/25 11:21:48;;;;;;;4.05;1.10;;;10.20;99.90;;;;;;6186054;23;20337;-87
2022/11/25 11:24:31;;;;;;;5.95;1.42;;;11.00;99.90;;;;;;6159400;23;20028;-83
2022/11/25 11:27:08;;;;;;;4.88;1.50;;;10.30;99.90;;;;;;6185802;23;20332;-84
2022/11/25 11:29:34;;;;;;;7.45;1.65;;;10.30;99.90;;;;;;6185303;23;20048;-84
2022/11/25 11:32:03;;;;;;;3.03;1.05;;;10.50;99.90;;;;;;6185552;23;20024;-83
2022/11/25 11:34:44;;;;;;;5.03;0.90;;;10.40;99.90;;;;;;6184701;23;20024;-83
2022/11/25 11:37:22;;;;;;;2.97;0.90;;;10.50;99.90;;;;;;6185828;23;20017;-84
2022/11/25 11:40:18;;;;;;;3.65;1.05;;;10.60;99.90;;;;;;6185956;23;20017;-84
2022/11/25 11:43:05;;;;;;;5.07;1.50;;;10.70;99.90;;;;;;6185589;23;20332;-84
2022/11/25 11:45:59;;;;;;;7.68;1.30;;;10.80;99.90;;;;;;6185631;23;20020;-85
2022/11/25 11:48:28;;;;;;;2.55;0.98;;;10.80;99.90;;;;;;6159076;23;20379;-85
2022/11/25 11:51:28;;;;;;;4.68;1.20;;;10.30;99.90;;;;;;6185752;23;20136;-84
2022/11/25 11:53:57;;;;;;;4.93;1.63;;;10.80;99.90;;;;;;6158895;23;20045;-85
2022/11/25 11:56:49;;;;;;;9.00;1.35;;;10.80;99.90;;;;;;6185820;23;20116;-85
2022/11/25 11:59:55;;;;;;;5.57;1.52;;;10.80;99.90;;;;;;6158873;23;20028;-83
2022/11/25 12:02:59;;;;;;;3.78;1.10;;;10.90;99.90;;;;;;6178385;23;20380;-84
2022/11/25 12:05:32;;;;;;;5.60;1.20;;;10.80;99.90;;;;;;6159024;23;20021;-85
2022/11/25 12:08:01;;;;;;;6.32;1.60;;;11.10;99.90;;;;;;6185629;23;20021;-86
2022/11/25 12:10:32;;;;;;;4.53;0.88;;;10.90;99.90;;;;;;6159003;23;20097;-86
2022/11/25 12:13:04;;;;;;;4.22;0.90;;;11.00;99.90;;;;;;6185762;23;20021;-86
2022/11/25 12:15:38;;;;;;;6.00;1.10;;;10.90;99.90;;;;;;6158882;23;20160;-87
2022/11/25 12:18:18;;;;;;;4.63;0.80;;;11.00;99.90;;;;;;6186119;23;20017;-85
2022/11/25 12:21:04;;;;;;;4.25;0.70;;;11.00;99.90;;;;;;6187536;23;20024;-86
2022/11/25 12:23:37;;;;;;;3.78;0.90;;;10.90;99.90;;;;;;6160762;23;20013;-86
2022/11/25 12:26:10;;;;;;;3.10;0.70;;;10.90;99.90;;;;;;6187536;23;20017;-87
2022/11/25 12:28:56;;;;;;;3.50;0.65;;;10.90;99.90;;;;;;6187268;23;20040;-86
2022/11/25 12:31:27;;;;;;;2.63;0.70;;;11.20;99.90;;;;;;6160454;23;20028;-85
2022/11/25 12:34:01;;;;;;;6.03;0.70;;;11.00;99.90;;;;;;6187058;23;20013;-86
2022/11/25 12:36:36;;;;;;;6.20;0.60;;;10.90;99.90;;;;;;6186476;23;20510;-85
2022/11/25 12:39:27;;;;;;;3.28;0.63;;;11.40;99.90;;;;;;6187558;23;20013;-87
2022/11/25 12:42:15;;;;;;;6.13;0.63;;;11.50;99.90;;;;;;6187510;23;20009;-86
2022/11/25 12:45:09;;;;;;;3.35;0.57;;;10.90;99.90;;;;;;6187001;23;20045;-87
2022/11/25 12:47:34;;;;;;;7.45;0.70;;;10.90;99.90;;;;;;6160642;23;20452;-86
2022/11/25 12:50:00;;;;;;;2.70;0.50;;;10.80;99.90;;;;;;6160692;23;20035;-85
2022/11/25 12:52:37;;;;;;;7.55;0.88;;;11.10;99.90;;;;;;6160213;23;20096;-86
2022/11/25 12:55:15;;;;;;;4.45;0.68;;;10.90;99.90;;;;;;6160841;23;20013;-86
2022/11/25 12:58:17;;;;;;;5.25;0.82;;;10.80;99.90;;;;;;6186983;23;20015;-85
2022/11/25 13:00:52;;;;;;;4.65;1.85;;;10.80;99.90;;;;;;6186446;23;20017;-86
2022/11/25 13:03:29;;;;;;;5.57;0.70;;;10.80;99.90;;;;;;6160273;23;20021;-86
2022/11/25 13:06:15;;;;;;;3.92;0.65;;;10.80;99.90;;;;;;6186712;23;20017;-85
2022/11/25 13:09:08;;;;;;;8.23;0.80;;;10.90;99.90;;;;;;6187231;23;20412;-85
2022/11/25 13:11:52;;;;;;;5.32;0.80;;;10.90;99.90;;;;;;6186864;23;20028;-87
2022/11/25 13:14:43;;;;;;;6.05;0.85;;;10.90;99.90;;;;;;6160448;23;20496;-86
2022/11/25 13:17:12;;;;;;;3.38;0.60;;;10.90;99.90;;;;;;6186864;23;20024;-88
2022/11/25 13:19:38;;;;;;;5.93;0.82;;;10.90;99.90;;;;;;6160361;23;20407;-86
2022/11/25 13:22:23;;;;;;;6.07;0.65;;;10.90;99.90;;;;;;6186694;23;20025;-86
2022/11/25 13:24:49;;;;;;;6.10;1.15;;;10.90;99.90;;;;;;6186216;23;20052;-85